sensor_id;sensor_type;location;lat;lon;timestamp;pressure;altitude;pressure_sealevel;temperature;humidity
21401;BME280;18038;50.166;18.908;2022-12-29T00:01:05;98019.16;;;0.67;59.96
21401;BME280;18038;50.166;18.908;2022-12-29T00:04:13;98025.13;;;0.69;59.75
21401;BME280;18038;50.166;18.908;2022-12-29T00:07:21;98014.16;;;0.64;60.25
21401;BME280;18038;50.166;18.908;2022-12-29T00:10:27;98013.34;;;0.63;59.88
21401;BME280;18038;50.166;18.908;2022-12-29T00:13:34;98008.91;;;0.64;60.26
21401;BME280;18038;50.166;18.908;2022-12-29T00:16:56;98014.00;;;0.56;60.37
21401;BME280;18038;50.166;18.908;2022-12-29T00:20:04;97999.47;;;0.52;60.44
21401;BME280;18038;50.166;18.908;2022-12-29T00:23:23;98001.22;;;0.42;60.91
21401;BME280;18038;50.166;18.908;2022-12-29T00:26:43;97995.69;;;0.45;61.07
21401;BME280;18038;50.166;18.908;2022-12-29T00:30:01;97995.31;;;0.59;60.60
21401;BME280;18038;50.166;18.908;2022-12-29T00:33:28;97993.50;;;0.50;61.06
21401;BME280;18038;50.166;18.908;2022-12-29T00:36:47;97965.91;;;0.34;60.88
21401;BME280;18038;50.166;18.908;2022-12-29T00:39:54;97976.41;;;0.34;61.69
21401;BME280;18038;50.166;18.908;2022-12-29T00:43:13;97974.72;;;0.24;61.56
21401;BME280;18038;50.166;18.908;2022-12-29T00:46:32;97977.41;;;0.12;62.53
21401;BME280;18038;50.166;18.908;2022-12-29T00:49:42;97972.88;;;0.14;62.21
21401;BME280;18038;50.166;18.908;2022-12-29T00:52:49;97971.72;;;0.07;62.53
21401;BME280;18038;50.166;18.908;2022-12-29T00:55:55;97959.94;;;0.02;62.91
21401;BME280;18038;50.166;18.908;2022-12-29T00:59:02;97962.50;;;-0.08;63.12
21401;BME280;18038;50.166;18.908;2022-12-29T01:02:11;97958.22;;;-0.09;63.37
21401;BME280;18038;50.166;18.908;2022-12-29T01:05:21;97965.13;;;-0.08;63.73
21401;BME280;18038;50.166;18.908;2022-12-29T01:08:27;97950.72;;;-0.14;63.69
21401;BME280;18038;50.166;18.908;2022-12-29T01:11:35;97947.13;;;-0.13;63.39
21401;BME280;18038;50.166;18.908;2022-12-29T01:14:38;97951.09;;;-0.18;63.72
21401;BME280;18038;50.166;18.908;2022-12-29T01:17:46;97952.09;;;-0.19;63.72
21401;BME280;18038;50.166;18.908;2022-12-29T01:20:58;97958.97;;;-0.18;63.96
21401;BME280;18038;50.166;18.908;2022-12-29T01:24:06;97956.09;;;-0.15;63.83
21401;BME280;18038;50.166;18.908;2022-12-29T01:27:13;97958.09;;;-0.08;63.69
21401;BME280;18038;50.166;18.908;2022-12-29T01:30:20;97961.97;;;-0.02;63.37
21401;BME280;18038;50.166;18.908;2022-12-29T01:33:28;97953.53;;;-0.06;63.20
21401;BME280;18038;50.166;18.908;2022-12-29T01:36:37;97954.16;;;0.08;63.00
21401;BME280;18038;50.166;18.908;2022-12-29T01:39:44;97962.50;;;0.13;63.24
21401;BME280;18038;50.166;18.908;2022-12-29T01:42:51;97962.16;;;0.06;63.31
21401;BME280;18038;50.166;18.908;2022-12-29T01:45:57;97964.13;;;0.14;63.44
21401;BME280;18038;50.166;18.908;2022-12-29T01:49:12;97965.56;;;0.18;63.53
21401;BME280;18038;50.166;18.908;2022-12-29T01:52:29;97954.78;;;0.21;63.28
21401;BME280;18038;50.166;18.908;2022-12-29T01:55:44;97952.31;;;0.29;62.98
21401;BME280;18038;50.166;18.908;2022-12-29T01:59:02;97943.50;;;0.30;63.04
21401;BME280;18038;50.166;18.908;2022-12-29T02:02:17;97937.97;;;0.33;62.52
21401;BME280;18038;50.166;18.908;2022-12-29T02:05:29;97938.59;;;0.47;62.67
21401;BME280;18038;50.166;18.908;2022-12-29T02:08:47;97930.97;;;0.44;62.74
21401;BME280;18038;50.166;18.908;2022-12-29T02:11:58;97920.47;;;0.44;62.19
21401;BME280;18038;50.166;18.908;2022-12-29T02:15:07;97904.09;;;0.40;62.17
21401;BME280;18038;50.166;18.908;2022-12-29T02:18:27;97912.31;;;0.47;62.13
21401;BME280;18038;50.166;18.908;2022-12-29T02:22:11;97918.16;;;0.60;61.71
21401;BME280;18038;50.166;18.908;2022-12-29T02:25:53;97910.97;;;0.62;61.82
21401;BME280;18038;50.166;18.908;2022-12-29T02:29:40;97912.06;;;0.59;61.87
21401;BME280;18038;50.166;18.908;2022-12-29T02:33:13;97907.63;;;0.60;61.79
21401;BME280;18038;50.166;18.908;2022-12-29T02:36:39;97905.44;;;0.75;61.63
21401;BME280;18038;50.166;18.908;2022-12-29T02:40:01;97910.44;;;0.88;61.14
21401;BME280;18038;50.166;18.908;2022-12-29T02:43:25;97911.69;;;0.83;61.38
21401;BME280;18038;50.166;18.908;2022-12-29T02:46:47;97891.19;;;0.68;61.35
21401;BME280;18038;50.166;18.908;2022-12-29T02:50:08;97910.69;;;0.75;61.77
21401;BME280;18038;50.166;18.908;2022-12-29T02:53:23;97900.31;;;0.63;61.96
21401;BME280;18038;50.166;18.908;2022-12-29T02:56:44;97914.97;;;0.66;62.27
21401;BME280;18038;50.166;18.908;2022-12-29T02:59:54;97920.00;;;0.79;62.01
21401;BME280;18038;50.166;18.908;2022-12-29T03:03:18;97923.72;;;0.76;62.32
21401;BME280;18038;50.166;18.908;2022-12-29T03:06:52;97919.44;;;0.75;62.13
21401;BME280;18038;50.166;18.908;2022-12-29T03:10:17;97922.06;;;0.75;62.30
21401;BME280;18038;50.166;18.908;2022-12-29T03:13:44;97905.31;;;0.76;62.29
21401;BME280;18038;50.166;18.908;2022-12-29T03:17:11;97903.47;;;0.67;62.70
21401;BME280;18038;50.166;18.908;2022-12-29T03:20:34;97902.66;;;0.57;62.97
21401;BME280;18038;50.166;18.908;2022-12-29T03:23:49;97902.91;;;0.54;63.19
21401;BME280;18038;50.166;18.908;2022-12-29T03:27:00;97896.53;;;0.47;63.25
21401;BME280;18038;50.166;18.908;2022-12-29T03:30:15;97879.09;;;0.46;62.63
21401;BME280;18038;50.166;18.908;2022-12-29T03:33:28;97897.69;;;0.63;62.85
21401;BME280;18038;50.166;18.908;2022-12-29T03:36:44;97892.28;;;0.65;62.72
21401;BME280;18038;50.166;18.908;2022-12-29T03:39:58;97883.56;;;0.55;62.73
21401;BME280;18038;50.166;18.908;2022-12-29T03:43:05;97880.78;;;0.47;63.16
21401;BME280;18038;50.166;18.908;2022-12-29T03:46:13;97892.38;;;0.44;63.19
21401;BME280;18038;50.166;18.908;2022-12-29T03:49:19;97898.19;;;0.48;63.08
21401;BME280;18038;50.166;18.908;2022-12-29T03:52:27;97892.25;;;0.55;63.05
21401;BME280;18038;50.166;18.908;2022-12-29T03:55:36;97884.34;;;0.46;63.16
21401;BME280;18038;50.166;18.908;2022-12-29T03:58:43;97861.94;;;0.42;63.02
21401;BME280;18038;50.166;18.908;2022-12-29T04:01:56;97862.22;;;0.48;63.25
21401;BME280;18038;50.166;18.908;2022-12-29T04:05:05;97857.09;;;0.37;63.40
21401;BME280;18038;50.166;18.908;2022-12-29T04:08:12;97849.19;;;0.37;63.36
21401;BME280;18038;50.166;18.908;2022-12-29T04:11:22;97840.06;;;0.31;63.10
21401;BME280;18038;50.166;18.908;2022-12-29T04:14:35;97828.00;;;0.19;63.67
21401;BME280;18038;50.166;18.908;2022-12-29T04:17:42;97821.31;;;0.05;64.21
21401;BME280;18038;50.166;18.908;2022-12-29T04:20:48;97830.31;;;0.03;64.56
21401;BME280;18038;50.166;18.908;2022-12-29T04:24:13;97825.59;;;-0.04;64.41
21401;BME280;18038;50.166;18.908;2022-12-29T04:27:25;97831.09;;;-0.07;64.39
21401;BME280;18038;50.166;18.908;2022-12-29T04:30:59;97820.34;;;0.06;63.79
21401;BME280;18038;50.166;18.908;2022-12-29T04:34:11;97807.69;;;0.21;63.21
21401;BME280;18038;50.166;18.908;2022-12-29T04:37:18;97822.22;;;0.35;62.66
21401;BME280;18038;50.166;18.908;2022-12-29T04:40:24;97821.97;;;0.48;62.11
21401;BME280;18038;50.166;18.908;2022-12-29T04:43:34;97824.47;;;0.59;61.84
21401;BME280;18038;50.166;18.908;2022-12-29T04:46:59;97825.88;;;0.63;61.58
21401;BME280;18038;50.166;18.908;2022-12-29T04:50:32;97818.41;;;0.68;61.68
21401;BME280;18038;50.166;18.908;2022-12-29T04:53:56;97820.50;;;0.74;61.77
21401;BME280;18038;50.166;18.908;2022-12-29T04:57:04;97816.34;;;0.62;61.71
21401;BME280;18038;50.166;18.908;2022-12-29T05:00:16;97825.47;;;0.68;61.98
21401;BME280;18038;50.166;18.908;2022-12-29T05:03:23;97825.19;;;0.71;61.65
21401;BME280;18038;50.166;18.908;2022-12-29T05:06:29;97814.53;;;0.72;61.85
21401;BME280;18038;50.166;18.908;2022-12-29T05:09:37;97810.94;;;0.73;61.59
21401;BME280;18038;50.166;18.908;2022-12-29T05:12:43;97814.41;;;0.74;61.49
21401;BME280;18038;50.166;18.908;2022-12-29T05:15:53;97806.09;;;0.78;61.66
21401;BME280;18038;50.166;18.908;2022-12-29T05:18:59;97813.28;;;0.76;61.80
21401;BME280;18038;50.166;18.908;2022-12-29T05:22:08;97824.38;;;0.70;62.26
21401;BME280;18038;50.166;18.908;2022-12-29T05:25:14;97829.06;;;0.67;62.54
21401;BME280;18038;50.166;18.908;2022-12-29T05:28:44;97826.44;;;0.67;62.47
21401;BME280;18038;50.166;18.908;2022-12-29T05:31:56;97829.63;;;0.70;62.59
21401;BME280;18038;50.166;18.908;2022-12-29T05:35:05;97831.28;;;0.71;62.55
21401;BME280;18038;50.166;18.908;2022-12-29T05:38:13;97820.19;;;0.77;62.44
21401;BME280;18038;50.166;18.908;2022-12-29T05:41:21;97809.81;;;0.85;62.37
21401;BME280;18038;50.166;18.908;2022-12-29T05:44:54;97806.94;;;0.79;62.21
21401;BME280;18038;50.166;18.908;2022-12-29T05:48:22;97802.09;;;0.74;62.59
21401;BME280;18038;50.166;18.908;2022-12-29T05:51:58;97805.81;;;0.72;62.73
21401;BME280;18038;50.166;18.908;2022-12-29T05:55:06;97816.50;;;0.70;62.91
21401;BME280;18038;50.166;18.908;2022-12-29T05:58:14;97821.44;;;0.83;62.55
21401;BME280;18038;50.166;18.908;2022-12-29T06:01:23;97813.84;;;0.90;62.29
21401;BME280;18038;50.166;18.908;2022-12-29T06:04:32;97813.28;;;0.96;62.38
21401;BME280;18038;50.166;18.908;2022-12-29T06:07:39;97810.25;;;0.91;62.42
21401;BME280;18038;50.166;18.908;2022-12-29T06:10:45;97797.78;;;0.93;62.52
21401;BME280;18038;50.166;18.908;2022-12-29T06:13:52;97793.78;;;0.98;62.46
21401;BME280;18038;50.166;18.908;2022-12-29T06:16:59;97797.91;;;1.01;61.73
21401;BME280;18038;50.166;18.908;2022-12-29T06:20:10;97792.66;;;1.01;61.77
21401;BME280;18038;50.166;18.908;2022-12-29T06:23:17;97789.09;;;1.02;61.89
21401;BME280;18038;50.166;18.908;2022-12-29T06:26:24;97778.69;;;1.00;62.02
21401;BME280;18038;50.166;18.908;2022-12-29T06:29:31;97767.88;;;1.03;62.07
21401;BME280;18038;50.166;18.908;2022-12-29T06:32:40;97779.34;;;1.12;61.69
21401;BME280;18038;50.166;18.908;2022-12-29T06:35:50;97776.72;;;1.12;61.82
21401;BME280;18038;50.166;18.908;2022-12-29T06:38:57;97773.72;;;1.07;61.87
21401;BME280;18038;50.166;18.908;2022-12-29T06:42:03;97788.09;;;1.03;62.18
21401;BME280;18038;50.166;18.908;2022-12-29T06:45:26;97773.97;;;1.14;62.24
21401;BME280;18038;50.166;18.908;2022-12-29T06:48:32;97778.41;;;1.13;62.41
21401;BME280;18038;50.166;18.908;2022-12-29T06:51:41;97778.81;;;1.09;62.58
21401;BME280;18038;50.166;18.908;2022-12-29T06:54:48;97781.69;;;1.25;62.21
21401;BME280;18038;50.166;18.908;2022-12-29T06:57:55;97772.84;;;1.26;61.98
21401;BME280;18038;50.166;18.908;2022-12-29T07:01:01;97776.00;;;1.29;62.36
21401;BME280;18038;50.166;18.908;2022-12-29T07:04:08;97785.84;;;1.27;62.26
21401;BME280;18038;50.166;18.908;2022-12-29T07:07:17;97786.94;;;1.25;62.81
21401;BME280;18038;50.166;18.908;2022-12-29T07:10:24;97774.94;;;1.13;63.19
21401;BME280;18038;50.166;18.908;2022-12-29T07:13:30;97773.13;;;1.13;63.48
21401;BME280;18038;50.166;18.908;2022-12-29T07:16:37;97778.56;;;1.02;64.01
21401;BME280;18038;50.166;18.908;2022-12-29T07:19:43;97778.28;;;1.05;64.37
21401;BME280;18038;50.166;18.908;2022-12-29T07:22:53;97777.00;;;1.09;64.21
21401;BME280;18038;50.166;18.908;2022-12-29T07:26:00;97785.88;;;1.08;64.18
21401;BME280;18038;50.166;18.908;2022-12-29T07:29:07;97791.69;;;1.12;64.01
21401;BME280;18038;50.166;18.908;2022-12-29T07:32:13;97803.88;;;1.13;64.55
21401;BME280;18038;50.166;18.908;2022-12-29T07:35:20;97795.28;;;1.20;64.39
21401;BME280;18038;50.166;18.908;2022-12-29T07:38:29;97801.63;;;1.27;64.47
21401;BME280;18038;50.166;18.908;2022-12-29T07:41:36;97793.72;;;1.27;64.34
21401;BME280;18038;50.166;18.908;2022-12-29T07:44:46;97786.66;;;1.28;64.71
21401;BME280;18038;50.166;18.908;2022-12-29T07:48:09;97790.25;;;1.37;64.70
21401;BME280;18038;50.166;18.908;2022-12-29T07:51:15;97803.56;;;1.35;64.68
21401;BME280;18038;50.166;18.908;2022-12-29T07:54:24;97801.44;;;1.48;64.00
21401;BME280;18038;50.166;18.908;2022-12-29T07:57:31;97799.63;;;1.49;64.17
21401;BME280;18038;50.166;18.908;2022-12-29T08:00:38;97790.63;;;1.51;64.40
21401;BME280;18038;50.166;18.908;2022-12-29T08:03:45;97778.88;;;1.46;64.18
21401;BME280;18038;50.166;18.908;2022-12-29T08:06:59;97778.88;;;1.46;64.38
21401;BME280;18038;50.166;18.908;2022-12-29T08:10:08;97785.88;;;1.65;64.08
21401;BME280;18038;50.166;18.908;2022-12-29T08:13:15;97791.84;;;1.57;63.58
21401;BME280;18038;50.166;18.908;2022-12-29T08:16:22;97790.00;;;1.67;63.55
21401;BME280;18038;50.166;18.908;2022-12-29T08:19:29;97778.47;;;1.41;64.00
21401;BME280;18038;50.166;18.908;2022-12-29T08:22:36;97799.16;;;1.26;64.78
21401;BME280;18038;50.166;18.908;2022-12-29T08:25:45;97791.25;;;1.26;64.75
21401;BME280;18038;50.166;18.908;2022-12-29T08:28:52;97790.81;;;1.31;64.94
21401;BME280;18038;50.166;18.908;2022-12-29T08:31:59;97783.91;;;1.20;65.20
21401;BME280;18038;50.166;18.908;2022-12-29T08:35:06;97795.28;;;1.20;65.53
21401;BME280;18038;50.166;18.908;2022-12-29T08:38:14;97796.41;;;1.08;65.98
21401;BME280;18038;50.166;18.908;2022-12-29T08:41:23;97787.41;;;1.11;65.88
21401;BME280;18038;50.166;18.908;2022-12-29T08:44:30;97794.44;;;1.20;65.80
21401;BME280;18038;50.166;18.908;2022-12-29T08:47:36;97805.69;;;1.69;64.58
21401;BME280;18038;50.166;18.908;2022-12-29T08:50:43;97807.69;;;2.12;63.10
21401;BME280;18038;50.166;18.908;2022-12-29T08:53:49;97818.94;;;2.42;62.37
21401;BME280;18038;50.166;18.908;2022-12-29T08:57:00;97814.72;;;2.49;62.01
21401;BME280;18038;50.166;18.908;2022-12-29T09:00:14;97819.13;;;2.31;62.52
21401;BME280;18038;50.166;18.908;2022-12-29T09:03:22;97799.63;;;2.24;62.67
21401;BME280;18038;50.166;18.908;2022-12-29T09:06:49;97810.88;;;2.61;61.60
21401;BME280;18038;50.166;18.908;2022-12-29T09:09:56;97809.09;;;2.98;60.48
21401;BME280;18038;50.166;18.908;2022-12-29T09:13:05;97820.38;;;3.26;59.67
21401;BME280;18038;50.166;18.908;2022-12-29T09:16:15;97802.22;;;3.75;57.95
21401;BME280;18038;50.166;18.908;2022-12-29T09:19:21;97808.81;;;4.05;57.26
21401;BME280;18038;50.166;18.908;2022-12-29T09:22:28;97811.31;;;4.57;55.45
21401;BME280;18038;50.166;18.908;2022-12-29T09:25:35;97804.72;;;4.62;55.65
21401;BME280;18038;50.166;18.908;2022-12-29T09:28:44;97778.56;;;4.67;55.37
21401;BME280;18038;50.166;18.908;2022-12-29T09:31:50;97791.31;;;4.79;55.42
21401;BME280;18038;50.166;18.908;2022-12-29T09:34:57;97800.63;;;5.08;55.10
21401;BME280;18038;50.166;18.908;2022-12-29T09:38:04;97798.16;;;5.23;53.85
21401;BME280;18038;50.166;18.908;2022-12-29T09:41:18;97793.63;;;4.74;55.54
21401;BME280;18038;50.166;18.908;2022-12-29T09:44:46;97785.28;;;4.28;57.43
21401;BME280;18038;50.166;18.908;2022-12-29T09:48:03;97791.81;;;4.08;58.02
21401;BME280;18038;50.166;18.908;2022-12-29T09:51:17;97795.69;;;3.87;58.84
21401;BME280;18038;50.166;18.908;2022-12-29T09:54:40;97796.63;;;3.78;59.45
21401;BME280;18038;50.166;18.908;2022-12-29T09:58:09;97789.75;;;3.85;59.74
21401;BME280;18038;50.166;18.908;2022-12-29T10:01:34;97792.22;;;3.61;60.11
21401;BME280;18038;50.166;18.908;2022-12-29T10:04:47;97789.84;;;3.76;60.31
21401;BME280;18038;50.166;18.908;2022-12-29T10:08:07;97784.97;;;3.63;60.63
21401;BME280;18038;50.166;18.908;2022-12-29T10:11:54;97781.00;;;3.59;60.72
21401;BME280;18038;50.166;18.908;2022-12-29T10:15:26;97776.75;;;4.00;60.22
21401;BME280;18038;50.166;18.908;2022-12-29T10:19:04;97767.81;;;4.52;58.40
21401;BME280;18038;50.166;18.908;2022-12-29T10:22:38;97751.13;;;5.09;56.43
21401;BME280;18038;50.166;18.908;2022-12-29T10:25:55;97765.84;;;5.52;55.13
21401;BME280;18038;50.166;18.908;2022-12-29T10:29:05;97772.50;;;6.35;53.29
21401;BME280;18038;50.166;18.908;2022-12-29T10:32:26;97756.19;;;6.46;52.28
21401;BME280;18038;50.166;18.908;2022-12-29T10:35:41;97770.47;;;7.14;51.47
21401;BME280;18038;50.166;18.908;2022-12-29T10:38:58;97762.66;;;7.13;50.95
21401;BME280;18038;50.166;18.908;2022-12-29T10:42:15;97760.94;;;7.20;50.41
21401;BME280;18038;50.166;18.908;2022-12-29T10:45:29;97765.81;;;7.16;50.94
21401;BME280;18038;50.166;18.908;2022-12-29T10:48:40;97748.97;;;6.63;52.00
21401;BME280;18038;50.166;18.908;2022-12-29T10:51:55;97759.00;;;6.76;52.12
21401;BME280;18038;50.166;18.908;2022-12-29T10:55:13;97759.38;;;6.42;52.52
21401;BME280;18038;50.166;18.908;2022-12-29T10:58:26;97762.19;;;6.94;51.56
21401;BME280;18038;50.166;18.908;2022-12-29T11:01:46;97771.78;;;6.95;51.35
21401;BME280;18038;50.166;18.908;2022-12-29T11:05:05;97773.16;;;6.68;52.46
21401;BME280;18038;50.166;18.908;2022-12-29T11:08:25;97773.31;;;6.90;51.94
21401;BME280;18038;50.166;18.908;2022-12-29T11:11:36;97772.66;;;6.42;53.83
21401;BME280;18038;50.166;18.908;2022-12-29T11:14:43;97766.16;;;6.44;53.62
21401;BME280;18038;50.166;18.908;2022-12-29T11:17:51;97769.63;;;6.13;54.70
21401;BME280;18038;50.166;18.908;2022-12-29T11:21:02;97776.31;;;6.32;54.75
21401;BME280;18038;50.166;18.908;2022-12-29T11:24:22;97773.97;;;6.06;55.36
21401;BME280;18038;50.166;18.908;2022-12-29T11:27:30;97769.97;;;6.10;55.21
21401;BME280;18038;50.166;18.908;2022-12-29T11:30:36;97761.00;;;6.11;55.27
21401;BME280;18038;50.166;18.908;2022-12-29T11:33:43;97772.50;;;6.35;55.32
21401;BME280;18038;50.166;18.908;2022-12-29T11:36:52;97760.00;;;6.21;54.86
21401;BME280;18038;50.166;18.908;2022-12-29T11:40:17;97756.69;;;6.19;54.75
21401;BME280;18038;50.166;18.908;2022-12-29T11:43:31;97757.28;;;6.60;54.63
21401;BME280;18038;50.166;18.908;2022-12-29T11:46:48;97756.72;;;6.65;54.32
21401;BME280;18038;50.166;18.908;2022-12-29T11:50:01;97765.41;;;6.27;55.11
21401;BME280;18038;50.166;18.908;2022-12-29T11:53:19;97762.03;;;6.42;55.46
21401;BME280;18038;50.166;18.908;2022-12-29T11:56:39;97759.53;;;6.71;54.24
21401;BME280;18038;50.166;18.908;2022-12-29T11:59:52;97762.69;;;6.67;53.96
21401;BME280;18038;50.166;18.908;2022-12-29T12:03:01;97770.25;;;6.78;54.06
21401;BME280;18038;50.166;18.908;2022-12-29T12:06:19;97754.63;;;6.29;54.90
21401;BME280;18038;50.166;18.908;2022-12-29T12:09:35;97743.03;;;6.30;54.65
21401;BME280;18038;50.166;18.908;2022-12-29T12:12:53;97766.59;;;6.79;53.53
21401;BME280;18038;50.166;18.908;2022-12-29T12:16:15;97776.88;;;7.05;52.83
21401;BME280;18038;50.166;18.908;2022-12-29T12:19:33;97776.56;;;6.77;53.02
21401;BME280;18038;50.166;18.908;2022-12-29T12:22:54;97776.84;;;6.59;53.76
21401;BME280;18038;50.166;18.908;2022-12-29T12:26:19;97778.28;;;6.39;54.10
21401;BME280;18038;50.166;18.908;2022-12-29T12:29:37;97768.00;;;6.12;54.71
21401;BME280;18038;50.166;18.908;2022-12-29T12:32:55;97766.75;;;5.92;55.25
21401;BME280;18038;50.166;18.908;2022-12-29T12:43:44;97752.25;;;5.47;57.04
21401;BME280;18038;50.166;18.908;2022-12-29T12:47:18;97750.94;;;5.43;57.44
21401;BME280;18038;50.166;18.908;2022-12-29T12:50:48;97748.94;;;5.45;57.32
21401;BME280;18038;50.166;18.908;2022-12-29T12:54:19;97740.03;;;5.30;57.98
21401;BME280;18038;50.166;18.908;2022-12-29T12:57:50;97722.34;;;5.22;58.54
21401;BME280;18038;50.166;18.908;2022-12-29T13:01:17;97712.59;;;5.06;59.35
21401;BME280;18038;50.166;18.908;2022-12-29T13:08:53;97718.66;;;5.56;58.48
21401;BME280;18038;50.166;18.908;2022-12-29T13:12:29;97695.31;;;5.43;59.08
21401;BME280;18038;50.166;18.908;2022-12-29T13:15:54;97728.13;;;5.34;59.41
21401;BME280;18038;50.166;18.908;2022-12-29T13:19:25;97732.44;;;5.18;60.17
21401;BME280;18038;50.166;18.908;2022-12-29T13:22:49;97732.47;;;5.02;61.00
21401;BME280;18038;50.166;18.908;2022-12-29T13:26:11;97738.91;;;5.08;60.94
21401;BME280;18038;50.166;18.908;2022-12-29T13:29:32;97740.41;;;5.10;61.04
21401;BME280;18038;50.166;18.908;2022-12-29T13:32:53;97742.03;;;5.11;61.06
21401;BME280;18038;50.166;18.908;2022-12-29T13:36:21;97735.25;;;5.00;61.71
21401;BME280;18038;50.166;18.908;2022-12-29T13:39:38;97735.44;;;4.99;62.21
21401;BME280;18038;50.166;18.908;2022-12-29T13:42:50;97731.31;;;4.96;62.06
21401;BME280;18038;50.166;18.908;2022-12-29T13:46:03;97725.84;;;4.98;62.25
21401;BME280;18038;50.166;18.908;2022-12-29T13:49:18;97729.50;;;4.97;62.80
21401;BME280;18038;50.166;18.908;2022-12-29T13:52:36;97740.75;;;4.91;62.62
21401;BME280;18038;50.166;18.908;2022-12-29T13:55:58;97732.78;;;4.74;62.70
21401;BME280;18038;50.166;18.908;2022-12-29T13:59:21;97740.09;;;4.72;63.52
21401;BME280;18038;50.166;18.908;2022-12-29T14:02:47;97722.69;;;4.53;63.82
21401;BME280;18038;50.166;18.908;2022-12-29T14:06:21;97734.44;;;4.59;63.76
21401;BME280;18038;50.166;18.908;2022-12-29T14:09:42;97727.81;;;4.55;63.63
21401;BME280;18038;50.166;18.908;2022-12-29T14:13:03;97727.97;;;4.53;63.80
21401;BME280;18038;50.166;18.908;2022-12-29T14:16:26;97724.34;;;4.46;63.56
21401;BME280;18038;50.166;18.908;2022-12-29T14:19:39;97726.47;;;4.43;64.14
21401;BME280;18038;50.166;18.908;2022-12-29T14:23:00;97730.31;;;4.48;64.00
21401;BME280;18038;50.166;18.908;2022-12-29T14:26:35;97725.63;;;4.34;64.30
21401;BME280;18038;50.166;18.908;2022-12-29T14:29:46;97730.44;;;4.39;64.35
21401;BME280;18038;50.166;18.908;2022-12-29T14:33:12;97724.13;;;4.31;64.41
21401;BME280;18038;50.166;18.908;2022-12-29T14:36:24;97717.84;;;4.24;64.40
21401;BME280;18038;50.166;18.908;2022-12-29T14:39:41;97726.09;;;4.29;64.51
21401;BME280;18038;50.166;18.908;2022-12-29T14:42:51;97726.28;;;4.20;64.24
21401;BME280;18038;50.166;18.908;2022-12-29T14:46:03;97721.81;;;4.20;64.54
21401;BME280;18038;50.166;18.908;2022-12-29T14:49:18;97725.59;;;4.18;64.41
21401;BME280;18038;50.166;18.908;2022-12-29T14:52:29;97711.53;;;4.09;64.21
21401;BME280;18038;50.166;18.908;2022-12-29T14:55:41;97716.84;;;4.17;64.01
21401;BME280;18038;50.166;18.908;2022-12-29T14:58:52;97724.25;;;4.13;63.82
21401;BME280;18038;50.166;18.908;2022-12-29T15:02:11;97727.44;;;4.17;63.58
21401;BME280;18038;50.166;18.908;2022-12-29T15:05:32;97743.09;;;4.19;63.27
21401;BME280;18038;50.166;18.908;2022-12-29T15:08:50;97740.13;;;4.22;62.47
21401;BME280;18038;50.166;18.908;2022-12-29T15:12:05;97746.28;;;4.22;62.58
21401;BME280;18038;50.166;18.908;2022-12-29T15:15:23;97719.00;;;4.22;62.47
21401;BME280;18038;50.166;18.908;2022-12-29T15:18:35;97716.97;;;4.07;62.71
21401;BME280;18038;50.166;18.908;2022-12-29T15:21:47;97723.28;;;4.14;62.30
21401;BME280;18038;50.166;18.908;2022-12-29T15:24:54;97725.09;;;4.14;62.22
21401;BME280;18038;50.166;18.908;2022-12-29T15:28:05;97740.63;;;4.09;62.57
21401;BME280;18038;50.166;18.908;2022-12-29T15:31:15;97725.25;;;4.12;62.28
21401;BME280;18038;50.166;18.908;2022-12-29T15:34:35;97728.56;;;4.14;62.47
21401;BME280;18038;50.166;18.908;2022-12-29T15:37:41;97734.66;;;4.07;62.52
21401;BME280;18038;50.166;18.908;2022-12-29T15:40:53;97727.41;;;4.09;62.51
21401;BME280;18038;50.166;18.908;2022-12-29T15:44:11;97725.75;;;4.16;62.41
21401;BME280;18038;50.166;18.908;2022-12-29T15:47:29;97712.88;;;4.13;62.20
21401;BME280;18038;50.166;18.908;2022-12-29T15:50:40;97730.69;;;4.11;62.45
21401;BME280;18038;50.166;18.908;2022-12-29T15:53:51;97723.09;;;4.16;62.25
21401;BME280;18038;50.166;18.908;2022-12-29T15:56:58;97726.06;;;4.13;62.36
21401;BME280;18038;50.166;18.908;2022-12-29T16:00:22;97721.78;;;4.12;62.22
21401;BME280;18038;50.166;18.908;2022-12-29T16:03:33;97719.50;;;4.17;61.94
21401;BME280;18038;50.166;18.908;2022-12-29T16:06:55;97718.69;;;4.25;62.28
21401;BME280;18038;50.166;18.908;2022-12-29T16:10:05;97732.56;;;4.27;61.82
21401;BME280;18038;50.166;18.908;2022-12-29T16:13:31;97729.59;;;4.30;62.03
21401;BME280;18038;50.166;18.908;2022-12-29T16:16:44;97728.41;;;4.24;62.12
21401;BME280;18038;50.166;18.908;2022-12-29T16:19:56;97728.13;;;4.27;62.01
21401;BME280;18038;50.166;18.908;2022-12-29T16:23:19;97736.53;;;4.23;62.14
21401;BME280;18038;50.166;18.908;2022-12-29T16:26:29;97721.97;;;4.19;61.88
21401;BME280;18038;50.166;18.908;2022-12-29T16:29:36;97738.50;;;4.21;62.21
21401;BME280;18038;50.166;18.908;2022-12-29T16:32:45;97734.22;;;4.20;62.29
21401;BME280;18038;50.166;18.908;2022-12-29T16:35:53;97745.75;;;4.19;62.42
21401;BME280;18038;50.166;18.908;2022-12-29T16:39:26;97747.91;;;4.15;62.57
21401;BME280;18038;50.166;18.908;2022-12-29T16:42:45;97745.75;;;4.19;62.58
21401;BME280;18038;50.166;18.908;2022-12-29T16:46:16;97735.00;;;4.12;62.60
21401;BME280;18038;50.166;18.908;2022-12-29T16:49:26;97747.56;;;4.10;63.04
21401;BME280;18038;50.166;18.908;2022-12-29T16:52:35;97735.97;;;4.11;63.27
21401;BME280;18038;50.166;18.908;2022-12-29T16:55:49;97733.97;;;4.05;63.59
21401;BME280;18038;50.166;18.908;2022-12-29T16:59:03;97736.09;;;3.93;64.02
21401;BME280;18038;50.166;18.908;2022-12-29T17:02:15;97733.09;;;3.80;64.54
21401;BME280;18038;50.166;18.908;2022-12-29T17:05:26;97747.13;;;3.80;65.16
21401;BME280;18038;50.166;18.908;2022-12-29T17:08:39;97746.09;;;3.73;65.69
21401;BME280;18038;50.166;18.908;2022-12-29T17:11:52;97747.19;;;3.62;66.02
21401;BME280;18038;50.166;18.908;2022-12-29T17:15:14;97743.19;;;3.58;66.57
21401;BME280;18038;50.166;18.908;2022-12-29T17:18:28;97745.78;;;3.50;66.74
21401;BME280;18038;50.166;18.908;2022-12-29T17:21:34;97739.69;;;3.49;66.59